Danner, Oregon
Current Conditions -  °F | °C
As of 5:15 AM on Friday 28 Nov 2014 (Local Time) from KMAN Reporting Station
Clear Clear  
Wind Chill: 37°   Ceiling: Unl
Heat Index: 37°   Visibility: 6mi
Dew Point: 37°   Wind: 0mph
Humidity: 100%   Direction: NA
Pressure: 29.88"   Gusts: NA
Location:  42.5961°N, 117.569°W
Report Text: KMAN 281215Z AUTO 00000KT 6SM CLR 03/03 A2988 RMK AO1
Loading
Personal Weather Stations






























Interactive Weather Map New forecast layout! Learn more

10-Day Weather Forecast

Advertisements
Track Severe Weather on mobile